createdAt,value
2022-12-04T00:01:30.259Z,2.50
2022-12-04T00:04:00.774Z,2.50
2022-12-04T00:06:29.381Z,2.50
2022-12-04T00:08:57.761Z,2.50
2022-12-04T00:11:27.837Z,2.60
2022-12-04T00:13:59.162Z,2.60
2022-12-04T00:16:32.551Z,2.60
2022-12-04T00:19:00.731Z,2.50
2022-12-04T00:21:28.685Z,2.50
2022-12-04T00:23:56.705Z,2.60
2022-12-04T00:26:26.517Z,2.60
2022-12-04T00:28:55.792Z,2.60
2022-12-04T00:31:25.603Z,2.60
2022-12-04T00:33:55.420Z,2.60
2022-12-04T00:36:25.654Z,2.60
2022-12-04T00:38:54.992Z,2.60
2022-12-04T00:41:25.478Z,2.60
2022-12-04T00:43:54.186Z,2.60
2022-12-04T00:46:23.238Z,2.70
2022-12-04T00:48:51.461Z,2.60
2022-12-04T00:51:22.681Z,2.70
2022-12-04T00:53:50.986Z,2.70
2022-12-04T00:56:21.062Z,2.70
2022-12-04T00:58:49.341Z,2.70
2022-12-04T01:01:20.549Z,2.80
2022-12-04T01:03:49.634Z,2.70
2022-12-04T01:06:23.688Z,2.70
2022-12-04T01:08:53.748Z,2.70
2022-12-04T01:11:23.446Z,2.70
2022-12-04T01:13:52.570Z,2.70
2022-12-04T01:16:23.109Z,2.70
2022-12-04T01:18:51.510Z,2.70
2022-12-04T01:21:21.107Z,2.70
2022-12-04T01:23:50.464Z,2.70
2022-12-04T01:26:18.497Z,2.70
2022-12-04T01:28:46.570Z,2.60
2022-12-04T01:31:18.447Z,2.70
2022-12-04T01:33:46.950Z,2.60
2022-12-04T01:36:16.992Z,2.70
2022-12-04T01:38:45.332Z,2.70
2022-12-04T01:41:16.501Z,2.70
2022-12-04T01:43:44.572Z,2.70
2022-12-04T01:46:13.048Z,2.70
2022-12-04T01:48:45.956Z,2.70
2022-12-04T01:51:19.323Z,2.60
2022-12-04T01:53:52.049Z,2.60
2022-12-04T01:56:27.782Z,2.60
2022-12-04T01:58:59.479Z,2.60
2022-12-04T02:01:32.668Z,2.60
2022-12-04T02:04:03.330Z,2.60
2022-12-04T02:06:31.386Z,2.60
2022-12-04T02:08:59.487Z,2.60
2022-12-04T02:11:37.436Z,2.50
2022-12-04T02:14:20.110Z,2.40
2022-12-04T02:16:52.299Z,2.30
2022-12-04T02:19:50.032Z,2.40
2022-12-04T02:22:30.845Z,2.30
2022-12-04T02:25:06.809Z,2.40
2022-12-04T02:27:57.054Z,2.40
2022-12-04T02:30:25.075Z,2.40
2022-12-04T02:41:26.830Z,2.30
2022-12-04T02:43:59.214Z,2.30
2022-12-04T02:46:33.751Z,2.40
2022-12-04T02:49:06.225Z,2.30
2022-12-04T02:51:37.954Z,2.40
2022-12-04T02:54:10.740Z,2.40
2022-12-04T02:56:44.085Z,2.50
2022-12-04T02:59:21.317Z,2.40
2022-12-04T03:01:53.882Z,2.40
2022-12-04T03:04:26.038Z,2.40
2022-12-04T03:06:58.850Z,2.50
2022-12-04T03:09:32.950Z,2.50
2022-12-04T03:12:08.632Z,2.50
2022-12-04T03:14:43.736Z,2.50
2022-12-04T03:17:19.168Z,2.50
2022-12-04T03:19:52.742Z,2.50
2022-12-04T03:22:24.355Z,2.50
2022-12-04T03:24:55.525Z,2.50
2022-12-04T03:27:32.111Z,2.50
2022-12-04T03:30:05.749Z,2.50
2022-12-04T03:32:38.069Z,2.50
2022-12-04T03:35:12.935Z,2.40
2022-12-04T03:37:51.457Z,2.50
2022-12-04T03:40:24.954Z,2.50
2022-12-04T03:42:59.007Z,2.50
2022-12-04T03:45:31.682Z,2.50
2022-12-04T03:52:12.175Z,2.40
2022-12-04T03:54:46.714Z,2.40
2022-12-04T03:57:19.317Z,2.30
2022-12-04T03:59:55.594Z,2.30
2022-12-04T04:02:30.047Z,2.20
2022-12-04T04:05:01.137Z,2.20
2022-12-04T04:07:35.902Z,2.20
2022-12-04T04:10:09.932Z,2.20
2022-12-04T04:12:41.823Z,2.20
2022-12-04T04:15:31.799Z,2.20
2022-12-04T04:18:21.121Z,2.20
2022-12-04T04:21:11.922Z,2.10
2022-12-04T04:24:01.734Z,2.00
2022-12-04T04:26:35.550Z,2.10
2022-12-04T04:29:03.995Z,2.10
2022-12-04T04:31:36.809Z,2.10
2022-12-04T04:34:15.694Z,2.10
2022-12-04T04:36:54.749Z,2.20
2022-12-04T04:44:00.137Z,2.00
2022-12-04T04:46:33.971Z,2.10
2022-12-04T04:49:05.422Z,2.10
2022-12-04T04:51:39.102Z,2.10
2022-12-04T04:54:11.158Z,2.10
2022-12-04T04:57:02.052Z,2.00
2022-12-04T04:59:34.739Z,2.00
2022-12-04T05:02:03.568Z,2.00
2022-12-04T05:04:32.798Z,2.00
2022-12-04T05:07:02.234Z,2.00
2022-12-04T05:09:35.700Z,2.00
2022-12-04T05:12:08.850Z,2.10
2022-12-04T05:14:38.659Z,2.10
2022-12-04T05:17:12.280Z,2.10
2022-12-04T05:19:57.360Z,2.20
2022-12-04T05:22:30.156Z,2.10
2022-12-04T05:24:58.865Z,2.20
2022-12-04T05:27:29.455Z,2.30
2022-12-04T05:29:59.343Z,2.30
2022-12-04T05:32:30.655Z,2.30
2022-12-04T05:34:59.674Z,2.40
2022-12-04T05:37:29.518Z,2.40
2022-12-04T05:39:58.003Z,2.40
2022-12-04T05:42:26.448Z,2.40
2022-12-04T05:44:57.403Z,2.40
2022-12-04T05:47:26.140Z,2.50
2022-12-04T05:49:54.595Z,2.50
2022-12-04T05:52:23.421Z,2.50
2022-12-04T05:54:53.151Z,2.40
2022-12-04T05:57:24.173Z,2.40
2022-12-04T05:59:53.788Z,2.40
2022-12-04T06:02:22.306Z,2.40
2022-12-04T06:04:50.698Z,2.40
2022-12-04T06:07:19.228Z,2.30
2022-12-04T06:09:47.242Z,2.30
2022-12-04T06:12:16.565Z,2.20
2022-12-04T06:14:45.723Z,2.30
2022-12-04T06:17:15.327Z,2.30
2022-12-04T06:19:43.503Z,2.20
2022-12-04T06:22:11.459Z,2.30
2022-12-04T06:24:40.119Z,2.20
2022-12-04T06:27:27.387Z,2.20
2022-12-04T06:29:57.823Z,2.20
2022-12-04T06:32:26.728Z,2.20
2022-12-04T06:34:55.846Z,2.10
2022-12-04T06:37:25.894Z,2.20
2022-12-04T06:39:55.024Z,2.20
2022-12-04T06:42:24.151Z,2.20
2022-12-04T06:45:15.322Z,2.20
2022-12-04T06:47:43.270Z,2.20
2022-12-04T06:50:11.885Z,2.20
2022-12-04T06:52:40.069Z,2.10
2022-12-04T06:55:08.961Z,2.10
2022-12-04T06:57:36.886Z,2.10
2022-12-04T07:00:07.546Z,2.10
2022-12-04T07:02:37.877Z,2.00
2022-12-04T07:05:07.352Z,2.00
2022-12-04T07:07:35.823Z,2.00
2022-12-04T07:10:03.910Z,2.10
2022-12-04T07:12:32.179Z,2.00
2022-12-04T07:15:00.192Z,2.10
2022-12-04T07:17:28.582Z,2.10
2022-12-04T07:19:59.006Z,2.10
2022-12-04T07:22:28.161Z,2.10
2022-12-04T07:24:56.532Z,2.20
2022-12-04T07:27:24.471Z,2.10
2022-12-04T07:29:53.555Z,2.10
2022-12-04T07:32:21.764Z,2.10
2022-12-04T07:34:50.126Z,2.10
2022-12-04T07:37:19.399Z,2.10
2022-12-04T07:39:47.952Z,2.10
2022-12-04T07:42:21.021Z,2.20
2022-12-04T07:44:51.898Z,2.10
2022-12-04T07:47:19.936Z,2.10
2022-12-04T07:49:48.278Z,2.10
2022-12-04T07:52:16.381Z,2.10
2022-12-04T07:54:47.239Z,2.20
2022-12-04T07:57:15.567Z,2.20
2022-12-04T07:59:44.155Z,2.30
2022-12-04T08:02:13.727Z,2.30
2022-12-04T08:04:41.813Z,2.30
2022-12-04T08:07:10.371Z,2.30
2022-12-04T08:09:39.240Z,2.30
2022-12-04T08:12:08.954Z,2.30
2022-12-04T08:14:37.482Z,2.40
2022-12-04T08:17:06.590Z,2.50
2022-12-04T08:19:34.573Z,2.60
2022-12-04T08:22:02.644Z,2.60
2022-12-04T08:24:30.717Z,2.70
2022-12-04T08:26:58.716Z,2.70
2022-12-04T08:29:29.500Z,2.70
2022-12-04T08:31:58.427Z,2.80
2022-12-04T08:34:26.739Z,2.70
2022-12-04T08:36:55.460Z,2.80
2022-12-04T08:39:24.615Z,2.90
2022-12-04T08:41:56.957Z,2.90
2022-12-04T08:44:25.863Z,2.90
2022-12-04T08:46:56.421Z,2.90
2022-12-04T08:49:24.460Z,3.00
2022-12-04T08:54:42.996Z,3.10
2022-12-04T08:57:11.081Z,3.10
2022-12-04T08:59:39.474Z,3.10
2022-12-04T09:02:10.838Z,3.10
2022-12-04T09:04:38.961Z,3.10
2022-12-04T09:07:07.375Z,3.20
2022-12-04T09:09:35.750Z,3.20
2022-12-04T09:12:03.859Z,3.30
2022-12-04T09:14:31.946Z,3.30
2022-12-04T09:16:59.921Z,3.50
2022-12-04T09:19:29.360Z,3.60
2022-12-04T09:21:57.475Z,3.70
2022-12-04T09:24:25.618Z,3.80
2022-12-04T09:31:07.969Z,3.80
2022-12-04T09:33:36.169Z,3.70
2022-12-04T09:36:06.778Z,3.60
2022-12-04T09:38:35.004Z,3.50
2022-12-04T09:41:09.614Z,3.50
2022-12-04T09:43:45.200Z,3.50
2022-12-04T09:46:20.427Z,3.60
2022-12-04T09:48:49.836Z,3.60
2022-12-04T09:51:23.970Z,3.80
2022-12-04T09:53:57.659Z,3.80
2022-12-04T09:56:30.168Z,3.80
2022-12-04T09:59:04.844Z,3.70
2022-12-04T10:01:43.219Z,3.80
2022-12-04T10:04:12.283Z,3.80
2022-12-04T10:06:46.979Z,3.80
2022-12-04T10:09:21.277Z,3.80
2022-12-04T10:11:59.192Z,3.80
2022-12-04T10:14:57.479Z,3.70
2022-12-04T10:17:47.214Z,3.60
2022-12-04T10:20:33.442Z,3.60
2022-12-04T10:23:14.014Z,3.60
2022-12-04T10:25:43.364Z,3.70
2022-12-04T10:28:23.191Z,3.70
2022-12-04T10:30:55.726Z,3.70
2022-12-04T10:33:32.354Z,3.80
2022-12-04T10:36:02.877Z,4.00
2022-12-04T10:38:38.951Z,3.90
2022-12-04T10:41:15.202Z,3.90
2022-12-04T10:43:46.631Z,4.00
2022-12-04T10:46:17.719Z,4.10
2022-12-04T10:48:50.221Z,4.20
2022-12-04T10:51:21.648Z,4.30
2022-12-04T10:53:52.168Z,4.50
2022-12-04T10:56:23.472Z,4.50
2022-12-04T10:58:59.895Z,4.50
2022-12-04T11:01:30.086Z,4.50
2022-12-04T11:04:02.619Z,4.50
2022-12-04T11:06:31.903Z,4.50
2022-12-04T11:09:03.207Z,4.60
2022-12-04T11:11:33.674Z,4.70
2022-12-04T11:14:03.608Z,4.80
2022-12-04T11:16:36.993Z,5.00
2022-12-04T11:19:19.047Z,5.10
2022-12-04T11:21:47.798Z,5.20
2022-12-04T11:24:23.853Z,5.30
2022-12-04T11:26:53.423Z,5.40
2022-12-04T11:29:24.637Z,5.40
2022-12-04T11:31:55.473Z,5.40
2022-12-04T11:34:30.512Z,5.50
2022-12-04T11:36:59.173Z,5.50
2022-12-04T11:39:33.281Z,5.60
2022-12-04T11:42:03.431Z,5.60
2022-12-04T11:44:35.321Z,5.70
2022-12-04T11:47:07.023Z,5.80
2022-12-04T11:49:39.543Z,5.90
2022-12-04T11:52:24.135Z,6.00
2022-12-04T11:55:02.113Z,6.10
2022-12-04T11:57:39.654Z,6.20
2022-12-04T12:00:14.785Z,6.40
2022-12-04T12:03:00.811Z,6.50
2022-12-04T12:05:50.994Z,6.60
2022-12-04T12:08:32.339Z,6.60
2022-12-04T12:11:11.115Z,6.60
2022-12-04T12:13:51.396Z,6.60
2022-12-04T12:16:29.303Z,6.70
2022-12-04T12:19:12.952Z,6.60
2022-12-04T12:21:49.552Z,6.60
2022-12-04T12:24:28.363Z,6.60
2022-12-04T12:27:17.139Z,6.60
2022-12-04T12:29:58.690Z,6.60
2022-12-04T12:32:44.688Z,6.60
2022-12-04T12:35:22.178Z,6.60
2022-12-04T12:37:55.254Z,6.60
2022-12-04T12:40:32.670Z,6.60
2022-12-04T12:43:07.797Z,6.60
2022-12-04T12:45:46.854Z,6.60
2022-12-04T12:48:27.608Z,6.70
2022-12-04T12:51:28.437Z,6.70
2022-12-04T12:53:54.292Z,6.70
2022-12-04T12:56:31.423Z,6.70
2022-12-04T12:59:05.451Z,6.70
2022-12-04T13:01:44.820Z,6.80
2022-12-04T13:04:19.705Z,6.80
2022-12-04T13:06:52.305Z,6.80
2022-12-04T13:09:26.184Z,6.90
2022-12-04T13:12:00.669Z,6.90
2022-12-04T13:14:30.842Z,7.00
2022-12-04T13:17:02.724Z,7.00
2022-12-04T13:19:37.052Z,7.00
2022-12-04T13:22:16.781Z,7.00
2022-12-04T13:25:14.455Z,7.00
2022-12-04T13:27:51.269Z,7.00
2022-12-04T13:30:23.656Z,7.10
2022-12-04T13:33:19.386Z,7.10
2022-12-04T13:36:05.537Z,7.10
2022-12-04T13:38:42.307Z,7.10
2022-12-04T13:41:16.094Z,7.10
2022-12-04T13:43:49.619Z,7.20
2022-12-04T13:46:35.451Z,7.20
2022-12-04T13:49:23.066Z,7.20
2022-12-04T13:51:53.481Z,7.20
2022-12-04T13:54:28.388Z,7.10
2022-12-04T13:56:58.721Z,7.20
2022-12-04T13:59:38.074Z,7.20
2022-12-04T14:02:25.363Z,7.20
2022-12-04T14:04:57.567Z,7.20
2022-12-04T14:07:30.252Z,7.20
2022-12-04T14:10:01.898Z,7.30
2022-12-04T14:12:33.907Z,7.30
2022-12-04T14:15:04.057Z,7.30
2022-12-04T14:17:38.576Z,7.20
2022-12-04T14:20:10.495Z,7.30
2022-12-04T14:22:45.094Z,7.20
2022-12-04T14:25:36.872Z,7.30
2022-12-04T14:28:24.987Z,7.30
2022-12-04T14:31:18.736Z,7.30
2022-12-04T14:33:53.794Z,7.40
2022-12-04T14:36:26.023Z,7.40
2022-12-04T14:39:06.720Z,7.40
2022-12-04T14:41:35.049Z,7.30
2022-12-04T14:44:03.833Z,7.30
2022-12-04T14:46:45.083Z,7.30
2022-12-04T14:49:28.267Z,7.30
2022-12-04T14:52:07.504Z,7.30
2022-12-04T14:54:46.153Z,7.30
2022-12-04T14:57:34.703Z,7.30
2022-12-04T15:00:05.376Z,7.30
2022-12-04T15:02:39.461Z,7.40
2022-12-04T15:05:13.097Z,7.30
2022-12-04T15:07:49.544Z,7.30
2022-12-04T15:10:40.772Z,7.30
2022-12-04T15:13:09.650Z,7.40
2022-12-04T15:15:38.353Z,7.40
2022-12-04T15:18:13.466Z,7.50
2022-12-04T15:20:55.933Z,7.40
2022-12-04T15:23:31.478Z,7.40
2022-12-04T15:26:02.937Z,7.40
2022-12-04T15:28:35.198Z,7.40
2022-12-04T15:31:05.885Z,7.40
2022-12-04T15:33:39.111Z,7.30
2022-12-04T15:36:17.864Z,7.30
2022-12-04T15:38:48.737Z,7.30
2022-12-04T15:41:32.141Z,7.30
2022-12-04T15:44:03.642Z,7.30
2022-12-04T15:46:37.809Z,7.20
2022-12-04T15:49:09.051Z,7.20
2022-12-04T15:51:40.166Z,7.10
2022-12-04T15:54:16.824Z,7.10
2022-12-04T15:56:45.228Z,7.10
2022-12-04T15:59:19.231Z,7.00
2022-12-04T16:01:47.804Z,6.90
2022-12-04T16:04:23.565Z,6.90
2022-12-04T16:06:54.307Z,6.80
2022-12-04T16:09:26.173Z,6.80
2022-12-04T16:12:03.419Z,6.70
2022-12-04T16:14:31.684Z,6.80
2022-12-04T16:17:06.313Z,6.80
2022-12-04T16:19:36.837Z,6.80
2022-12-04T16:22:12.831Z,6.70
2022-12-04T16:24:41.670Z,6.60
2022-12-04T16:27:13.695Z,6.60
2022-12-04T16:29:41.985Z,6.60
2022-12-04T16:32:12.704Z,6.60
2022-12-04T16:34:40.926Z,6.70
2022-12-04T16:37:13.898Z,6.70
2022-12-04T16:39:42.159Z,6.80
2022-12-04T16:42:17.054Z,6.70
2022-12-04T16:44:45.127Z,6.70
2022-12-04T16:47:14.379Z,6.70
2022-12-04T16:49:43.152Z,6.60
2022-12-04T16:52:14.080Z,6.60
2022-12-04T16:54:42.177Z,6.60
2022-12-04T16:57:11.287Z,6.50
2022-12-04T16:59:39.691Z,6.40
2022-12-04T17:02:17.485Z,6.30
2022-12-04T17:04:45.627Z,6.30
2022-12-04T17:07:15.394Z,6.30
2022-12-04T17:09:43.454Z,6.30
2022-12-04T17:12:11.442Z,6.30
2022-12-04T17:14:39.999Z,6.30
2022-12-04T17:17:08.555Z,6.30
2022-12-04T17:19:36.620Z,6.30
2022-12-04T17:22:04.650Z,6.30
2022-12-04T17:24:39.547Z,6.20
2022-12-04T17:27:14.223Z,6.10
2022-12-04T17:29:42.195Z,5.90
2022-12-04T17:32:10.125Z,5.90
2022-12-04T17:34:38.745Z,5.80
2022-12-04T17:37:07.251Z,5.70
2022-12-04T17:39:37.859Z,5.70
2022-12-04T17:42:05.990Z,5.60
2022-12-04T17:44:34.728Z,5.50
2022-12-04T17:47:03.015Z,5.50
2022-12-04T17:49:31.571Z,5.40
2022-12-04T17:51:59.790Z,5.40
2022-12-04T17:54:28.455Z,5.40
2022-12-04T17:56:58.244Z,5.40
2022-12-04T17:59:26.511Z,5.40
2022-12-04T18:01:54.694Z,5.30
2022-12-04T18:04:23.294Z,5.40
2022-12-04T18:06:52.622Z,5.30
2022-12-04T18:09:21.209Z,5.30
2022-12-04T18:11:49.435Z,5.30
2022-12-04T18:14:22.042Z,5.30
2022-12-04T18:16:53.013Z,5.30
2022-12-04T18:19:22.405Z,5.30
2022-12-04T18:21:50.849Z,5.30
2022-12-04T18:24:19.389Z,5.30
2022-12-04T18:26:49.247Z,5.30
2022-12-04T18:29:21.859Z,5.30
2022-12-04T18:31:51.007Z,5.30
2022-12-04T18:34:19.933Z,5.30
2022-12-04T18:36:49.159Z,5.30
2022-12-04T18:39:19.039Z,5.30
2022-12-04T18:41:48.345Z,5.20
2022-12-04T18:44:18.591Z,5.20
2022-12-04T18:46:46.717Z,5.20
2022-12-04T18:49:14.891Z,5.20
2022-12-04T18:51:49.305Z,5.20
2022-12-04T18:54:21.359Z,5.20
2022-12-04T18:56:49.969Z,5.20
2022-12-04T18:59:22.614Z,5.20
2022-12-04T19:01:51.422Z,5.30
2022-12-04T19:04:23.088Z,5.30
2022-12-04T19:06:53.560Z,5.20
2022-12-04T19:09:40.970Z,5.20
2022-12-04T19:12:12.940Z,5.20
2022-12-04T19:14:42.344Z,5.20
2022-12-04T19:17:11.391Z,5.20
2022-12-04T19:19:39.413Z,5.20
2022-12-04T19:22:08.532Z,5.20
2022-12-04T19:24:36.711Z,5.20
2022-12-04T19:27:10.959Z,5.20
2022-12-04T19:29:39.409Z,5.20
2022-12-04T19:32:09.864Z,5.20
2022-12-04T19:34:38.476Z,5.20
2022-12-04T19:37:07.189Z,5.20
2022-12-04T19:39:35.169Z,5.20
2022-12-04T19:42:03.397Z,5.20
2022-12-04T19:44:48.797Z,5.20
2022-12-04T19:47:19.189Z,5.20
2022-12-04T19:49:48.211Z,5.20
2022-12-04T19:52:16.661Z,5.20
2022-12-04T19:54:45.399Z,5.20
2022-12-04T19:57:14.689Z,5.20
2022-12-04T19:59:57.885Z,5.10
2022-12-04T20:02:28.051Z,5.10
2022-12-04T20:04:56.386Z,5.10
2022-12-04T20:07:24.369Z,5.10
2022-12-04T20:09:52.887Z,5.10
2022-12-04T20:12:21.150Z,5.20
2022-12-04T20:14:49.102Z,5.20
2022-12-04T20:17:18.290Z,5.20
2022-12-04T20:19:47.750Z,5.20
2022-12-04T20:22:15.788Z,5.20
2022-12-04T20:24:44.061Z,5.20
2022-12-04T20:27:12.096Z,5.20
2022-12-04T20:29:40.640Z,5.20
2022-12-04T20:32:08.719Z,5.20
2022-12-04T20:34:43.077Z,5.10
2022-12-04T20:37:13.205Z,5.10
2022-12-04T20:39:41.879Z,5.10
2022-12-04T20:42:11.116Z,5.10
2022-12-04T20:44:39.669Z,5.10
2022-12-04T20:47:08.144Z,5.10
2022-12-04T20:49:37.534Z,5.10
2022-12-04T20:52:05.915Z,5.10
2022-12-04T20:54:41.375Z,5.10
2022-12-04T20:57:10.455Z,5.10
2022-12-04T20:59:38.655Z,5.10
2022-12-04T21:02:07.181Z,5.00
2022-12-04T21:04:38.075Z,5.00
2022-12-04T21:07:06.104Z,5.00
2022-12-04T21:09:36.503Z,5.00
2022-12-04T21:12:26.821Z,5.00
2022-12-04T21:15:11.323Z,5.00
2022-12-04T21:17:41.519Z,5.00
2022-12-04T21:20:11.535Z,4.90
2022-12-04T21:22:39.875Z,4.90
2022-12-04T21:25:10.163Z,4.90
2022-12-04T21:27:38.597Z,4.90
2022-12-04T21:30:08.059Z,4.90
2022-12-04T21:32:36.186Z,4.90
2022-12-04T21:35:05.792Z,4.90
2022-12-04T21:37:34.403Z,4.90
2022-12-04T21:40:03.775Z,4.80
2022-12-04T21:42:33.829Z,4.90
2022-12-04T21:45:04.317Z,4.90
2022-12-04T21:47:32.413Z,4.90
2022-12-04T21:50:01.679Z,4.90
2022-12-04T21:52:31.069Z,4.90
2022-12-04T21:54:59.347Z,4.80
2022-12-04T21:57:30.975Z,4.90
2022-12-04T22:00:04.680Z,4.80
2022-12-04T22:02:36.290Z,4.80
2022-12-04T22:05:05.010Z,4.80
2022-12-04T22:07:33.777Z,4.80
2022-12-04T22:10:08.683Z,4.80
2022-12-04T22:12:49.697Z,4.80
2022-12-04T22:15:21.064Z,4.80
2022-12-04T22:17:49.138Z,4.80
2022-12-04T22:20:17.691Z,4.80
2022-12-04T22:22:45.862Z,4.70
2022-12-04T22:25:14.779Z,4.70
2022-12-04T22:27:42.761Z,4.60
2022-12-04T22:30:12.222Z,4.60
2022-12-04T22:32:42.842Z,4.60
2022-12-04T22:35:11.096Z,4.60
2022-12-04T22:37:44.134Z,4.60
2022-12-04T22:40:14.223Z,4.60
2022-12-04T22:42:42.276Z,4.70
2022-12-04T22:45:10.884Z,4.60
2022-12-04T22:47:39.710Z,4.50
2022-12-04T22:50:10.673Z,4.60
2022-12-04T22:52:39.716Z,4.50
2022-12-04T22:55:09.256Z,4.50
2022-12-04T22:57:37.356Z,4.50
2022-12-04T23:00:07.444Z,4.40
2022-12-04T23:02:36.236Z,4.50
2022-12-04T23:05:04.730Z,4.50
2022-12-04T23:07:34.185Z,4.50
2022-12-04T23:10:02.784Z,4.50
2022-12-04T23:12:30.724Z,4.50
2022-12-04T23:14:58.729Z,4.40
2022-12-04T23:17:26.805Z,4.30
2022-12-04T23:19:55.237Z,4.30
2022-12-04T23:22:24.478Z,4.40
2022-12-04T23:24:54.211Z,4.40
2022-12-04T23:27:22.270Z,4.40
2022-12-04T23:29:53.904Z,4.40
2022-12-04T23:32:42.451Z,4.40
2022-12-04T23:35:11.221Z,4.40
2022-12-04T23:37:41.135Z,4.30
2022-12-04T23:40:11.712Z,4.40
2022-12-04T23:42:40.331Z,4.40
2022-12-04T23:45:09.152Z,4.40
2022-12-04T23:47:38.040Z,4.40
2022-12-04T23:50:07.023Z,4.40
2022-12-04T23:52:35.074Z,4.30
2022-12-04T23:55:03.744Z,4.40
2022-12-04T23:57:33.144Z,4.40
